Brownsville South Padre Island International Airport
KBRO : now visible

Airfield :











YOU CAN JOIN US ON...

 
LOGIN :

Register | Disclaimer

   EN    FR    IT 

 









Legend :    VFR   Marginal VFR   IFR   Intensive IFR   Very Intensive IFR
Visi :
Ceiling :
>= 8 km
>= 3000ft
5 to 8 km
1000 to 3000 ft
1500m to 5 km
500 to 1000 ft
800 to 1500m
200 to 500 ft
< 800m
< 200 ft
Symbols :   Thunderstorms  Fog  Heavy snow  Heavy precipitations  Wind > 20 kt






- Airport Elevation : 22 ft
- IATA code : BRO


KBRO - Brownsville South Padre Island International

CURRENT METAR :
  • 091853Z 18023G30KT 10SM SCT025 28/19 A2980 RMK AO2 PK WND 18032/1821 SLP090 T02830194

EXPIRED METARs :
  • 091801Z 18020G29KT 10SM BKN025 27/19 A2984 RMK AO2 PK WND 18029/1757 T02720194
  • 091753Z 19018G28KT 10SM SCT025 27/19 A2984 RMK AO2 PK WND 17034/1708 SLP104 T02670194 10278 20222 58010
  • 091653Z 18027G33KT 10SM CLR 27/19 A2987 RMK AO2 PK WND 18034/1626 SLP114 T02670194

TAF KBRO
Valid from the 09 at 18:00 until the 10 at 18:00 UTC


091729Z 0918/1018 18025G35KT P6SM FEW030
FM100000 16013G18KT P6SM SCT030
FM100800 18007KT P6SM BKN025
FM101500 33025G35KT P6SM OVC025



MET'MAP, your aeronautical weather chart ! - Copyright ORBIFLY December 2007 - Disclaimer

ORBIFLY MET'MAP TEAM :

Programming & Development : Alexandra Zaïnal
Concept & original design : Baudouin d'Aumeries
Assistance for programming : Marc-Olivier Méhu
Technical & hardware support : Manuel Goepfert

Contact : metmap@orbifly.com




SOURCES & CREDITS :

   NOAA       Earth
Advisory